sensor_id;sensor_type;location;lat;lon;timestamp;pressure;altitude;pressure_sealevel;temperature;humidity
38612;BME280;24368;52.156;20.788;2022-12-18T00:02:07;101820.20;;;-5.06;100.00
38612;BME280;24368;52.156;20.788;2022-12-18T00:07:08;101826.08;;;-5.09;100.00
38612;BME280;24368;52.156;20.788;2022-12-18T00:12:09;101835.05;;;-5.13;100.00
38612;BME280;24368;52.156;20.788;2022-12-18T00:17:10;101841.30;;;-5.18;100.00
38612;BME280;24368;52.156;20.788;2022-12-18T00:22:11;101841.41;;;-5.13;100.00
38612;BME280;24368;52.156;20.788;2022-12-18T00:27:12;101839.95;;;-5.05;100.00
38612;BME280;24368;52.156;20.788;2022-12-18T00:32:13;101844.48;;;-4.95;100.00
38612;BME280;24368;52.156;20.788;2022-12-18T00:37:14;101850.11;;;-4.93;100.00
38612;BME280;24368;52.156;20.788;2022-12-18T00:42:15;101857.91;;;-4.99;100.00
38612;BME280;24368;52.156;20.788;2022-12-18T00:47:35;101865.70;;;-5.04;100.00
38612;BME280;24368;52.156;20.788;2022-12-18T00:52:36;101863.86;;;-5.06;100.00
38612;BME280;24368;52.156;20.788;2022-12-18T00:57:37;101868.13;;;-5.05;100.00
38612;BME280;24368;52.156;20.788;2022-12-18T01:02:39;101877.97;;;-4.95;100.00
38612;BME280;24368;52.156;20.788;2022-12-18T01:07:41;101882.34;;;-4.87;100.00
38612;BME280;24368;52.156;20.788;2022-12-18T01:12:42;101893.27;;;-4.80;100.00
38612;BME280;24368;52.156;20.788;2022-12-18T01:17:43;101899.95;;;-4.78;100.00
38612;BME280;24368;52.156;20.788;2022-12-18T01:22:44;101907.23;;;-4.83;100.00
38612;BME280;24368;52.156;20.788;2022-12-18T01:27:45;101910.52;;;-4.84;100.00
38612;BME280;24368;52.156;20.788;2022-12-18T01:32:46;101909.91;;;-4.77;100.00
38612;BME280;24368;52.156;20.788;2022-12-18T01:37:47;101914.65;;;-4.71;100.00
38612;BME280;24368;52.156;20.788;2022-12-18T01:42:52;101917.09;;;-4.74;100.00
38612;BME280;24368;52.156;20.788;2022-12-18T01:47:55;101921.43;;;-4.78;100.00
38612;BME280;24368;52.156;20.788;2022-12-18T01:53:03;101935.05;;;-4.81;100.00
38612;BME280;24368;52.156;20.788;2022-12-18T01:58:06;101942.89;;;-4.74;100.00
38612;BME280;24368;52.156;20.788;2022-12-18T02:03:07;101950.05;;;-4.70;100.00
38612;BME280;24368;52.156;20.788;2022-12-18T02:08:12;101957.23;;;-4.65;100.00
38612;BME280;24368;52.156;20.788;2022-12-18T02:18:48;101976.54;;;-4.69;100.00
38612;BME280;24368;52.156;20.788;2022-12-18T02:28:55;101989.11;;;-4.56;100.00
38612;BME280;24368;52.156;20.788;2022-12-18T02:34:00;101993.20;;;-4.53;100.00
38612;BME280;24368;52.156;20.788;2022-12-18T02:39:05;101995.46;;;-4.54;100.00
38612;BME280;24368;52.156;20.788;2022-12-18T02:44:10;102003.85;;;-4.51;100.00
38612;BME280;24368;52.156;20.788;2022-12-18T03:00:12;102017.39;;;-4.47;100.00
38612;BME280;24368;52.156;20.788;2022-12-18T03:05:24;102028.98;;;-4.54;100.00
38612;BME280;24368;52.156;20.788;2022-12-18T03:10:30;102039.83;;;-4.52;100.00
38612;BME280;24368;52.156;20.788;2022-12-18T03:15:42;102050.61;;;-4.48;100.00
38612;BME280;24368;52.156;20.788;2022-12-18T03:20:45;102062.33;;;-4.51;100.00
38612;BME280;24368;52.156;20.788;2022-12-18T03:25:52;102070.70;;;-4.62;100.00
38612;BME280;24368;52.156;20.788;2022-12-18T03:30:58;102074.45;;;-4.58;100.00
38612;BME280;24368;52.156;20.788;2022-12-18T03:36:01;102076.45;;;-4.52;100.00
38612;BME280;24368;52.156;20.788;2022-12-18T03:46:45;102077.56;;;-4.60;100.00
38612;BME280;24368;52.156;20.788;2022-12-18T03:57:08;102091.31;;;-4.59;100.00
38612;BME280;24368;52.156;20.788;2022-12-18T04:02:11;102100.77;;;-4.59;100.00
38612;BME280;24368;52.156;20.788;2022-12-18T04:07:13;102103.56;;;-4.63;100.00
38612;BME280;24368;52.156;20.788;2022-12-18T04:12:14;102113.20;;;-4.63;100.00
38612;BME280;24368;52.156;20.788;2022-12-18T04:17:15;102122.79;;;-4.59;100.00
38612;BME280;24368;52.156;20.788;2022-12-18T04:22:16;102127.06;;;-4.56;100.00
38612;BME280;24368;52.156;20.788;2022-12-18T04:27:18;102134.22;;;-4.49;100.00
38612;BME280;24368;52.156;20.788;2022-12-18T04:32:19;102146.88;;;-4.60;100.00
38612;BME280;24368;52.156;20.788;2022-12-18T04:37:20;102160.64;;;-4.61;100.00
38612;BME280;24368;52.156;20.788;2022-12-18T04:42:21;102165.71;;;-4.50;100.00
38612;BME280;24368;52.156;20.788;2022-12-18T04:47:22;102169.48;;;-4.48;100.00
38612;BME280;24368;52.156;20.788;2022-12-18T04:52:23;102176.80;;;-4.59;100.00
38612;BME280;24368;52.156;20.788;2022-12-18T04:57:24;102184.28;;;-4.71;100.00
38612;BME280;24368;52.156;20.788;2022-12-18T05:02:25;102184.55;;;-4.85;100.00
38612;BME280;24368;52.156;20.788;2022-12-18T05:07:26;102189.89;;;-4.87;100.00
38612;BME280;24368;52.156;20.788;2022-12-18T05:12:27;102211.55;;;-4.86;100.00
38612;BME280;24368;52.156;20.788;2022-12-18T05:17:28;102216.07;;;-4.92;100.00
38612;BME280;24368;52.156;20.788;2022-12-18T05:22:29;102222.88;;;-5.10;100.00
38612;BME280;24368;52.156;20.788;2022-12-18T05:27:30;102225.85;;;-5.20;100.00
38612;BME280;24368;52.156;20.788;2022-12-18T05:32:31;102231.71;;;-5.28;100.00
38612;BME280;24368;52.156;20.788;2022-12-18T05:37:32;102231.38;;;-5.30;100.00
38612;BME280;24368;52.156;20.788;2022-12-18T05:42:32;102238.20;;;-5.17;100.00
38612;BME280;24368;52.156;20.788;2022-12-18T05:47:33;102241.75;;;-5.05;100.00
38612;BME280;24368;52.156;20.788;2022-12-18T05:52:34;102241.25;;;-5.07;100.00
38612;BME280;24368;52.156;20.788;2022-12-18T05:57:35;102246.10;;;-5.15;100.00
38612;BME280;24368;52.156;20.788;2022-12-18T06:02:36;102257.14;;;-5.25;100.00
38612;BME280;24368;52.156;20.788;2022-12-18T06:07:37;102267.44;;;-5.25;100.00
38612;BME280;24368;52.156;20.788;2022-12-18T06:12:38;102273.06;;;-5.12;100.00
38612;BME280;24368;52.156;20.788;2022-12-18T06:17:39;102285.27;;;-5.09;100.00
38612;BME280;24368;52.156;20.788;2022-12-18T06:22:40;102303.51;;;-5.19;100.00
38612;BME280;24368;52.156;20.788;2022-12-18T06:27:42;102308.84;;;-5.17;100.00
38612;BME280;24368;52.156;20.788;2022-12-18T06:32:42;102316.77;;;-5.29;100.00
38612;BME280;24368;52.156;20.788;2022-12-18T06:37:43;102327.08;;;-5.28;100.00
38612;BME280;24368;52.156;20.788;2022-12-18T06:42:44;102337.86;;;-5.14;100.00
38612;BME280;24368;52.156;20.788;2022-12-18T06:47:45;102347.14;;;-5.14;100.00
38612;BME280;24368;52.156;20.788;2022-12-18T06:52:46;102351.96;;;-5.16;100.00
38612;BME280;24368;52.156;20.788;2022-12-18T06:57:47;102358.83;;;-5.12;100.00
38612;BME280;24368;52.156;20.788;2022-12-18T07:02:48;102364.70;;;-5.21;100.00
38612;BME280;24368;52.156;20.788;2022-12-18T07:07:49;102369.70;;;-5.29;100.00
38612;BME280;24368;52.156;20.788;2022-12-18T07:12:50;102375.17;;;-5.26;100.00
38612;BME280;24368;52.156;20.788;2022-12-18T07:17:51;102380.15;;;-5.19;100.00
38612;BME280;24368;52.156;20.788;2022-12-18T07:22:52;102384.46;;;-5.26;100.00
38612;BME280;24368;52.156;20.788;2022-12-18T07:27:54;102391.50;;;-5.25;100.00
38612;BME280;24368;52.156;20.788;2022-12-18T07:32:55;102402.32;;;-5.22;100.00
38612;BME280;24368;52.156;20.788;2022-12-18T07:37:56;102412.80;;;-5.22;100.00
38612;BME280;24368;52.156;20.788;2022-12-18T07:42:58;102417.45;;;-5.27;100.00
38612;BME280;24368;52.156;20.788;2022-12-18T07:47:59;102425.87;;;-5.28;100.00
38612;BME280;24368;52.156;20.788;2022-12-18T07:52:59;102437.73;;;-5.35;100.00
38612;BME280;24368;52.156;20.788;2022-12-18T07:58:04;102445.11;;;-5.36;100.00
38612;BME280;24368;52.156;20.788;2022-12-18T08:03:05;102452.16;;;-5.29;100.00
38612;BME280;24368;52.156;20.788;2022-12-18T08:08:06;102467.63;;;-5.34;100.00
38612;BME280;24368;52.156;20.788;2022-12-18T08:13:07;102477.08;;;-5.34;100.00
38612;BME280;24368;52.156;20.788;2022-12-18T08:18:08;102477.59;;;-5.41;100.00
38612;BME280;24368;52.156;20.788;2022-12-18T08:23:09;102487.55;;;-5.40;100.00
38612;BME280;24368;52.156;20.788;2022-12-18T08:28:10;102494.42;;;-5.39;100.00
38612;BME280;24368;52.156;20.788;2022-12-18T08:33:11;102495.80;;;-5.38;100.00
38612;BME280;24368;52.156;20.788;2022-12-18T08:38:12;102505.93;;;-5.28;100.00
38612;BME280;24368;52.156;20.788;2022-12-18T08:43:13;102510.06;;;-5.15;100.00
38612;BME280;24368;52.156;20.788;2022-12-18T08:48:33;102506.62;;;-5.28;100.00
38612;BME280;24368;52.156;20.788;2022-12-18T08:53:34;102508.00;;;-5.23;100.00
38612;BME280;24368;52.156;20.788;2022-12-18T08:58:35;102514.52;;;-5.34;100.00
38612;BME280;24368;52.156;20.788;2022-12-18T09:03:37;102523.45;;;-5.32;100.00
38612;BME280;24368;52.156;20.788;2022-12-18T09:08:38;102526.04;;;-5.27;100.00
38612;BME280;24368;52.156;20.788;2022-12-18T09:13:39;102529.82;;;-5.17;100.00
38612;BME280;24368;52.156;20.788;2022-12-18T09:18:40;102537.21;;;-5.27;100.00
38612;BME280;24368;52.156;20.788;2022-12-18T09:23:41;102545.98;;;-5.15;100.00
38612;BME280;24368;52.156;20.788;2022-12-18T09:28:42;102548.91;;;-5.01;100.00
38612;BME280;24368;52.156;20.788;2022-12-18T09:33:43;102544.77;;;-5.23;100.00
38612;BME280;24368;52.156;20.788;2022-12-18T09:38:45;102543.58;;;-5.13;100.00
38612;BME280;24368;52.156;20.788;2022-12-18T09:43:49;102545.63;;;-5.00;100.00
38612;BME280;24368;52.156;20.788;2022-12-18T09:48:53;102546.30;;;-4.83;100.00
38612;BME280;24368;52.156;20.788;2022-12-18T09:53:57;102554.91;;;-5.01;100.00
38612;BME280;24368;52.156;20.788;2022-12-18T09:59:01;102560.07;;;-5.01;100.00
38612;BME280;24368;52.156;20.788;2022-12-18T10:04:07;102567.27;;;-4.93;100.00
38612;BME280;24368;52.156;20.788;2022-12-18T10:15:06;102574.33;;;-4.79;100.00
38612;BME280;24368;52.156;20.788;2022-12-18T10:20:33;102568.28;;;-4.64;100.00
38612;BME280;24368;52.156;20.788;2022-12-18T10:30:44;102554.30;;;-4.43;100.00
38612;BME280;24368;52.156;20.788;2022-12-18T10:35:47;102558.73;;;-4.32;100.00
38612;BME280;24368;52.156;20.788;2022-12-18T10:40:53;102567.95;;;-4.09;100.00
38612;BME280;24368;52.156;20.788;2022-12-18T10:46:01;102555.98;;;-3.90;100.00
38612;BME280;24368;52.156;20.788;2022-12-18T10:51:03;102553.60;;;-3.94;100.00
38612;BME280;24368;52.156;20.788;2022-12-18T10:56:05;102559.62;;;-3.92;100.00
38612;BME280;24368;52.156;20.788;2022-12-18T11:01:14;102562.52;;;-3.86;100.00
38612;BME280;24368;52.156;20.788;2022-12-18T11:06:19;102570.45;;;-3.88;100.00
38612;BME280;24368;52.156;20.788;2022-12-18T11:11:25;102565.69;;;-4.01;100.00
38612;BME280;24368;52.156;20.788;2022-12-18T11:16:27;102561.14;;;-3.85;100.00
38612;BME280;24368;52.156;20.788;2022-12-18T11:21:29;102557.17;;;-3.86;100.00
38612;BME280;24368;52.156;20.788;2022-12-18T11:26:34;102566.86;;;-3.96;100.00
38612;BME280;24368;52.156;20.788;2022-12-18T11:31:36;102569.85;;;-4.08;100.00
38612;BME280;24368;52.156;20.788;2022-12-18T11:36:43;102571.51;;;-3.92;100.00
38612;BME280;24368;52.156;20.788;2022-12-18T11:47:24;102568.85;;;-3.79;100.00
38612;BME280;24368;52.156;20.788;2022-12-18T11:52:41;102565.17;;;-4.01;100.00
38612;BME280;24368;52.156;20.788;2022-12-18T12:03:35;102584.61;;;-4.00;100.00
38612;BME280;24368;52.156;20.788;2022-12-18T12:08:59;102586.02;;;-4.03;100.00
38612;BME280;24368;52.156;20.788;2022-12-18T12:41:08;102616.56;;;-4.32;100.00
38612;BME280;24368;52.156;20.788;2022-12-18T12:46:32;102612.11;;;-4.43;100.00
38612;BME280;24368;52.156;20.788;2022-12-18T12:51:37;102625.38;;;-4.52;100.00
38612;BME280;24368;52.156;20.788;2022-12-18T13:12:02;102667.66;;;-4.24;100.00
38612;BME280;24368;52.156;20.788;2022-12-18T13:17:28;102666.64;;;-4.34;100.00
38612;BME280;24368;52.156;20.788;2022-12-18T13:22:34;102666.15;;;-4.51;100.00
38612;BME280;24368;52.156;20.788;2022-12-18T13:27:46;102673.55;;;-4.47;100.00
38612;BME280;24368;52.156;20.788;2022-12-18T13:38:42;102671.65;;;-4.53;100.00
38612;BME280;24368;52.156;20.788;2022-12-18T13:43:48;102686.27;;;-4.58;100.00
38612;BME280;24368;52.156;20.788;2022-12-18T13:54:37;102686.61;;;-4.51;100.00
38612;BME280;24368;52.156;20.788;2022-12-18T13:59:39;102691.08;;;-4.48;100.00
38612;BME280;24368;52.156;20.788;2022-12-18T14:04:40;102691.25;;;-4.54;100.00
38612;BME280;24368;52.156;20.788;2022-12-18T14:09:44;102697.96;;;-4.56;100.00
38612;BME280;24368;52.156;20.788;2022-12-18T14:14:49;102703.99;;;-4.59;100.00
38612;BME280;24368;52.156;20.788;2022-12-18T14:19:51;102702.10;;;-4.57;100.00
38612;BME280;24368;52.156;20.788;2022-12-18T14:25:13;102699.69;;;-4.61;100.00
38612;BME280;24368;52.156;20.788;2022-12-18T14:35:24;102708.11;;;-4.64;100.00
38612;BME280;24368;52.156;20.788;2022-12-18T14:40:25;102709.33;;;-4.54;100.00
38612;BME280;24368;52.156;20.788;2022-12-18T14:45:34;102721.55;;;-4.51;100.00
38612;BME280;24368;52.156;20.788;2022-12-18T14:50:38;102726.70;;;-4.59;100.00
38612;BME280;24368;52.156;20.788;2022-12-18T14:55:46;102727.03;;;-4.71;100.00
38612;BME280;24368;52.156;20.788;2022-12-18T15:00:47;102727.54;;;-4.78;100.00
38612;BME280;24368;52.156;20.788;2022-12-18T15:05:49;102737.00;;;-4.75;100.00
38612;BME280;24368;52.156;20.788;2022-12-18T15:10:50;102736.16;;;-4.65;100.00
38612;BME280;24368;52.156;20.788;2022-12-18T15:15:53;102733.92;;;-4.52;100.00
38612;BME280;24368;52.156;20.788;2022-12-18T15:21:00;102731.50;;;-4.59;100.00
38612;BME280;24368;52.156;20.788;2022-12-18T15:26:09;102734.08;;;-4.69;100.00
38612;BME280;24368;52.156;20.788;2022-12-18T15:36:16;102740.27;;;-4.73;100.00
38612;BME280;24368;52.156;20.788;2022-12-18T15:41:19;102751.10;;;-4.78;100.00
38612;BME280;24368;52.156;20.788;2022-12-18T15:46:23;102759.16;;;-4.85;100.00
38612;BME280;24368;52.156;20.788;2022-12-18T15:51:28;102758.80;;;-4.94;100.00
38612;BME280;24368;52.156;20.788;2022-12-18T15:56:31;102765.33;;;-4.94;100.00
38612;BME280;24368;52.156;20.788;2022-12-18T16:01:51;102756.91;;;-4.91;100.00
38612;BME280;24368;52.156;20.788;2022-12-18T16:06:55;102762.08;;;-4.93;100.00
38612;BME280;24368;52.156;20.788;2022-12-18T16:11:56;102769.97;;;-5.00;100.00
38612;BME280;24368;52.156;20.788;2022-12-18T16:17:00;102764.08;;;-5.11;100.00
38612;BME280;24368;52.156;20.788;2022-12-18T16:22:01;102758.05;;;-5.12;100.00
38612;BME280;24368;52.156;20.788;2022-12-18T16:27:02;102770.13;;;-5.03;100.00
38612;BME280;24368;52.156;20.788;2022-12-18T16:32:03;102768.76;;;-4.98;100.00
38612;BME280;24368;52.156;20.788;2022-12-18T16:37:07;102769.98;;;-4.96;100.00
38612;BME280;24368;52.156;20.788;2022-12-18T16:42:15;102773.73;;;-4.97;100.00
38612;BME280;24368;52.156;20.788;2022-12-18T16:47:19;102772.54;;;-5.00;100.00
38612;BME280;24368;52.156;20.788;2022-12-18T16:52:20;102787.98;;;-5.07;100.00
38612;BME280;24368;52.156;20.788;2022-12-18T16:57:22;102806.30;;;-5.24;100.00
38612;BME280;24368;52.156;20.788;2022-12-18T17:02:25;102797.17;;;-5.28;100.00
38612;BME280;24368;52.156;20.788;2022-12-18T17:07:27;102801.69;;;-5.18;100.00
38612;BME280;24368;52.156;20.788;2022-12-18T17:12:28;102798.41;;;-5.22;100.00
38612;BME280;24368;52.156;20.788;2022-12-18T17:17:29;102799.86;;;-5.41;100.00
38612;BME280;24368;52.156;20.788;2022-12-18T17:22:30;102797.77;;;-5.49;100.00
38612;BME280;24368;52.156;20.788;2022-12-18T17:27:31;102793.86;;;-5.39;100.00
38612;BME280;24368;52.156;20.788;2022-12-18T17:32:32;102805.84;;;-5.46;100.00
38612;BME280;24368;52.156;20.788;2022-12-18T17:37:33;102810.21;;;-5.63;100.00
38612;BME280;24368;52.156;20.788;2022-12-18T17:42:34;102811.30;;;-5.78;100.00
38612;BME280;24368;52.156;20.788;2022-12-18T17:47:35;102820.33;;;-5.90;100.00
38612;BME280;24368;52.156;20.788;2022-12-18T17:52:36;102826.06;;;-5.79;100.00
38612;BME280;24368;52.156;20.788;2022-12-18T17:57:37;102833.25;;;-5.84;100.00
38612;BME280;24368;52.156;20.788;2022-12-18T18:02:38;102836.16;;;-5.85;100.00
38612;BME280;24368;52.156;20.788;2022-12-18T18:07:40;102831.05;;;-5.80;100.00
38612;BME280;24368;52.156;20.788;2022-12-18T18:12:41;102830.23;;;-5.75;100.00
38612;BME280;24368;52.156;20.788;2022-12-18T18:18:01;102836.64;;;-5.66;100.00
38612;BME280;24368;52.156;20.788;2022-12-18T18:23:02;102827.89;;;-5.65;100.00
38612;BME280;24368;52.156;20.788;2022-12-18T18:28:03;102826.44;;;-5.75;100.00
38612;BME280;24368;52.156;20.788;2022-12-18T18:33:03;102820.66;;;-5.92;100.00
38612;BME280;24368;52.156;20.788;2022-12-18T18:38:05;102819.34;;;-6.10;100.00
38612;BME280;24368;52.156;20.788;2022-12-18T18:43:06;102818.27;;;-6.14;100.00
38612;BME280;24368;52.156;20.788;2022-12-18T18:48:07;102811.58;;;-6.14;100.00
38612;BME280;24368;52.156;20.788;2022-12-18T18:53:08;102809.08;;;-6.06;100.00
38612;BME280;24368;52.156;20.788;2022-12-18T18:58:09;102836.81;;;-6.13;100.00
38612;BME280;24368;52.156;20.788;2022-12-18T19:03:10;102833.38;;;-6.33;100.00
38612;BME280;24368;52.156;20.788;2022-12-18T19:08:12;102839.14;;;-6.40;100.00
38612;BME280;24368;52.156;20.788;2022-12-18T19:13:13;102831.52;;;-6.47;100.00
38612;BME280;24368;52.156;20.788;2022-12-18T19:18:26;102817.10;;;-6.50;100.00
38612;BME280;24368;52.156;20.788;2022-12-18T19:23:28;102828.40;;;-6.51;100.00
38612;BME280;24368;52.156;20.788;2022-12-18T19:28:29;102837.78;;;-6.38;100.00
38612;BME280;24368;52.156;20.788;2022-12-18T19:33:35;102844.10;;;-6.41;100.00
38612;BME280;24368;52.156;20.788;2022-12-18T19:38:36;102847.27;;;-6.33;100.00
38612;BME280;24368;52.156;20.788;2022-12-18T19:43:38;102841.00;;;-6.26;100.00
38612;BME280;24368;52.156;20.788;2022-12-18T19:48:39;102839.54;;;-6.14;100.00
38612;BME280;24368;52.156;20.788;2022-12-18T19:53:40;102847.52;;;-6.24;100.00
38612;BME280;24368;52.156;20.788;2022-12-18T19:58:42;102849.23;;;-6.25;100.00
38612;BME280;24368;52.156;20.788;2022-12-18T20:03:44;102847.91;;;-6.21;100.00
38612;BME280;24368;52.156;20.788;2022-12-18T20:08:46;102828.83;;;-6.24;100.00
38612;BME280;24368;52.156;20.788;2022-12-18T20:13:47;102828.96;;;-6.28;100.00
38612;BME280;24368;52.156;20.788;2022-12-18T20:18:48;102835.92;;;-6.36;100.00
38612;BME280;24368;52.156;20.788;2022-12-18T20:23:49;102838.61;;;-6.42;100.00
38612;BME280;24368;52.156;20.788;2022-12-18T20:28:51;102844.81;;;-6.39;100.00
38612;BME280;24368;52.156;20.788;2022-12-18T20:33:54;102843.64;;;-6.36;100.00
38612;BME280;24368;52.156;20.788;2022-12-18T20:38:56;102858.38;;;-6.37;100.00
38612;BME280;24368;52.156;20.788;2022-12-18T20:43:57;102884.08;;;-6.40;100.00
38612;BME280;24368;52.156;20.788;2022-12-18T20:48:58;102883.36;;;-6.44;100.00
38612;BME280;24368;52.156;20.788;2022-12-18T20:54:00;102883.09;;;-6.52;100.00
38612;BME280;24368;52.156;20.788;2022-12-18T20:59:01;102889.01;;;-6.43;100.00
38612;BME280;24368;52.156;20.788;2022-12-18T21:04:03;102883.58;;;-6.38;100.00
38612;BME280;24368;52.156;20.788;2022-12-18T21:09:04;102882.48;;;-6.46;100.00
38612;BME280;24368;52.156;20.788;2022-12-18T21:14:09;102884.11;;;-6.53;100.00
38612;BME280;24368;52.156;20.788;2022-12-18T21:19:11;102884.73;;;-6.60;100.00
38612;BME280;24368;52.156;20.788;2022-12-18T21:24:12;102878.73;;;-6.58;100.00
38612;BME280;24368;52.156;20.788;2022-12-18T21:29:16;102872.45;;;-6.52;100.00
38612;BME280;24368;52.156;20.788;2022-12-18T21:34:23;102859.73;;;-6.54;100.00
38612;BME280;24368;52.156;20.788;2022-12-18T21:39:28;102855.32;;;-6.51;100.00
38612;BME280;24368;52.156;20.788;2022-12-18T21:44:30;102843.30;;;-6.53;100.00
38612;BME280;24368;52.156;20.788;2022-12-18T21:49:31;102829.45;;;-6.48;100.00
38612;BME280;24368;52.156;20.788;2022-12-18T21:54:33;102806.85;;;-6.44;100.00
38612;BME280;24368;52.156;20.788;2022-12-18T21:59:36;102789.03;;;-6.44;100.00
38612;BME280;24368;52.156;20.788;2022-12-18T22:04:38;102784.38;;;-6.46;100.00
38612;BME280;24368;52.156;20.788;2022-12-18T22:09:40;102780.48;;;-6.39;100.00
38612;BME280;24368;52.156;20.788;2022-12-18T22:14:41;102778.73;;;-6.43;100.00
38612;BME280;24368;52.156;20.788;2022-12-18T22:19:42;102780.74;;;-6.49;100.00
38612;BME280;24368;52.156;20.788;2022-12-18T22:24:43;102787.83;;;-6.44;100.00
38612;BME280;24368;52.156;20.788;2022-12-18T22:29:44;102790.13;;;-6.36;100.00
38612;BME280;24368;52.156;20.788;2022-12-18T22:35:04;102781.71;;;-6.35;100.00
38612;BME280;24368;52.156;20.788;2022-12-18T22:40:08;102772.44;;;-6.37;100.00
38612;BME280;24368;52.156;20.788;2022-12-18T22:45:10;102773.63;;;-6.39;100.00
38612;BME280;24368;52.156;20.788;2022-12-18T22:50:12;102779.30;;;-6.38;100.00
38612;BME280;24368;52.156;20.788;2022-12-18T22:55:13;102778.39;;;-6.44;100.00
38612;BME280;24368;52.156;20.788;2022-12-18T23:00:16;102763.84;;;-6.42;100.00
38612;BME280;24368;52.156;20.788;2022-12-18T23:05:17;102760.12;;;-6.35;100.00
38612;BME280;24368;52.156;20.788;2022-12-18T23:10:18;102755.50;;;-6.32;100.00
38612;BME280;24368;52.156;20.788;2022-12-18T23:15:19;102755.52;;;-6.30;100.00
38612;BME280;24368;52.156;20.788;2022-12-18T23:20:20;102758.83;;;-6.26;100.00
38612;BME280;24368;52.156;20.788;2022-12-18T23:25:21;102744.91;;;-6.28;100.00
38612;BME280;24368;52.156;20.788;2022-12-18T23:30:23;102743.30;;;-6.35;100.00
38612;BME280;24368;52.156;20.788;2022-12-18T23:35:24;102746.14;;;-6.46;100.00
38612;BME280;24368;52.156;20.788;2022-12-18T23:40:25;102750.94;;;-6.45;100.00
38612;BME280;24368;52.156;20.788;2022-12-18T23:45:26;102745.84;;;-6.41;100.00
38612;BME280;24368;52.156;20.788;2022-12-18T23:50:27;102748.73;;;-6.41;100.00
38612;BME280;24368;52.156;20.788;2022-12-18T23:55:29;102752.27;;;-6.48;100.00
